^^
Grace C. Lehan Memorial Weather Station Historical Data
Daily Summary for May 3, 2021 Units:  Both    English   Metric
Daily Weekly Monthly Yearly
  High: Low: Average:
Temperature: 74.7 °F /  23.7 °C 55.2 °F /  12.9 °C 65.1 °F /  18.4 °C
Dew Point: 59.9 °F /  15.5 °C 51.9 °F /  11.1 °C 55.4 °F /  13 °C
Humidity: 90% 52.1% 72%
Wind Speed: 5.4mph /  8.7km/h - 0.7mph /  1.1km/h
Wind Gust: 13mph /  20.9km/h - -
Wind- - West
Pressure: 29.99 in /  1015.5 hPa 29.93 in /  1013.4 hPa -
Precipitation: 0.00 in /  0 mm    
 
 
Tabular Data for May 3, 2021
Time Temperature Dew Point Pressure Wind Wind Speed Wind Gust Humidity Rainfall Rate (Hourly) solar
00:09 60.3 °F /  15.7 °C 52.7 °F /  11.5 °C 29.95in /  1014.1hPa Calm     76% 0.00in /  0mm 0 W/m2
00:14 60.1 °F /  15.6 °C 52.7 °F /  11.5 °C 29.95in /  1014.1hPa Calm   1mph /  1.6km/h 76.5% 0.00in /  0mm 0 W/m2
00:19 59.9 °F /  15.5 °C 52.7 °F /  11.5 °C 29.95in /  1014.1hPa Calm   1mph /  1.6km/h 77% 0.00in /  0mm 0 W/m2
00:24 59.8 °F /  15.4 °C 52.5 °F /  11.4 °C 29.95in /  1014.1hPa Calm   1mph /  1.6km/h 77% 0.00in /  0mm 0 W/m2
00:29 59.6 °F /  15.3 °C 52.4 °F /  11.3 °C 29.95in /  1014.1hPa Calm   1mph /  1.6km/h 77.1% 0.00in /  0mm 0 W/m2
00:34 59.5 °F /  15.3 °C 52.8 °F /  11.6 °C 29.95in /  1014.1hPa Calm   1mph /  1.6km/h 78.5% 0.00in /  0mm 0 W/m2
00:39 59.3 °F /  15.2 °C 52.8 °F /  11.6 °C 29.95in /  1014.1hPa Calm     79% 0.00in /  0mm 0 W/m2
00:44 59.1 °F /  15.1 °C 52.6 °F /  11.4 °C 29.95in /  1014.1hPa Calm     79% 0.00in /  0mm 0 W/m2
00:49 58.9 °F /  14.9 °C 52.6 °F /  11.4 °C 29.95in /  1014.1hPa Calm     79.4% 0.00in /  0mm 0 W/m2
00:54 58.8 °F /  14.9 °C 52.7 °F /  11.5 °C 29.95in /  1014.1hPa Calm     80% 0.00in /  0mm 0 W/m2
00:59 58.7 °F /  14.8 °C 52.6 °F /  11.4 °C 29.95in /  1014.1hPa Calm     80% 0.00in /  0mm 0 W/m2
01:04 58.6 °F /  14.8 °C 52.5 °F /  11.4 °C 29.95in /  1014.1hPa Calm     80.1% 0.00in /  0mm 0 W/m2
01:09 58.4 °F /  14.7 °C 52.6 °F /  11.4 °C 29.95in /  1014.1hPa Calm     81% 0.00in /  0mm 0 W/m2
01:14 58.2 °F /  14.6 °C 52.4 °F /  11.3 °C 29.95in /  1014.1hPa Calm     81% 0.00in /  0mm 0 W/m2
01:19 58.1 °F /  14.5 °C 52.3 °F /  11.3 °C 29.95in /  1014.1hPa Calm     81% 0.00in /  0mm 0 W/m2
01:24 57.9 °F /  14.4 °C 52.4 °F /  11.3 °C 29.95in /  1014.1hPa Calm     81.9% 0.00in /  0mm 0 W/m2
01:29 57.7 °F /  14.3 °C 52.3 °F /  11.3 °C 29.95in /  1014.1hPa Calm     82% 0.00in /  0mm 0 W/m2
01:34 57.6 °F /  14.2 °C 52.1 °F /  11.2 °C 29.95in /  1014.1hPa Calm     82% 0.00in /  0mm 0 W/m2
01:39 57.4 °F /  14.1 °C 52.3 °F /  11.3 °C 29.95in /  1014.1hPa Calm     83% 0.00in /  0mm 0 W/m2
01:44 57.3 °F /  14.1 °C 52.2 °F /  11.2 °C 29.94in /  1013.8hPa Calm     83.2% 0.00in /  0mm 0 W/m2
01:49 57.1 °F /  13.9 °C 52.3 °F /  11.3 °C 29.94in /  1013.8hPa Calm     84% 0.00in /  0mm 0 W/m2
01:54 56.9 °F /  13.8 °C 52.4 °F /  11.3 °C 29.94in /  1013.8hPa Calm     84.7% 0.00in /  0mm 0 W/m2
01:59 56.8 °F /  13.8 °C 52.4 °F /  11.3 °C 29.94in /  1013.8hPa Calm     85% 0.00in /  0mm 0 W/m2
02:04 56.7 °F /  13.7 °C 52.3 °F /  11.3 °C 29.95in /  1014.1hPa Calm     85% 0.00in /  0mm 0 W/m2
02:09 56.7 °F /  13.7 °C 52.7 °F /  11.5 °C 29.95in /  1014.1hPa Calm     86.2% 0.00in /  0mm 0 W/m2
02:14 56.9 °F /  13.8 °C 53.1 °F /  11.7 °C 29.95in /  1014.1hPa Calm     87% 0.00in /  0mm 0 W/m2
02:19 56.9 °F /  13.8 °C 52.9 °F /  11.6 °C 29.95in /  1014.1hPa Calm     86.7% 0.00in /  0mm 0 W/m2
02:24 56.8 °F /  13.8 °C 52.7 °F /  11.5 °C 29.95in /  1014.1hPa Calm     86% 0.00in /  0mm 0 W/m2
02:29 56.8 °F /  13.8 °C 52.6 °F /  11.4 °C 29.95in /  1014.1hPa Calm     86% 0.00in /  0mm 0 W/m2
02:34 56.8 °F /  13.8 °C 52.6 °F /  11.4 °C 29.95in /  1014.1hPa Calm     86% 0.00in /  0mm 0 W/m2
02:39 56.8 °F /  13.8 °C 52.8 °F /  11.6 °C 29.95in /  1014.1hPa Calm     86.4% 0.00in /  0mm 0 W/m2
02:44 57 °F /  13.9 °C 53.2 °F /  11.8 °C 29.95in /  1014.1hPa Calm     87% 0.00in /  0mm 0 W/m2
02:49 57.2 °F /  14 °C 53.3 °F /  11.8 °C 29.95in /  1014.1hPa Calm     87% 0.00in /  0mm 0 W/m2
02:54 57.2 °F /  14 °C 53.3 °F /  11.8 °C 29.95in /  1014.1hPa Calm     86.8% 0.00in /  0mm 0 W/m2
02:59 57.2 °F /  14 °C 53.2 °F /  11.8 °C 29.95in /  1014.1hPa Calm     86.6% 0.00in /  0mm 0 W/m2
03:04 57.2 °F /  14 °C 53.1 °F /  11.7 °C 29.95in /  1014.1hPa Calm     86% 0.00in /  0mm 0 W/m2
03:09 57.3 °F /  14.1 °C 53.1 °F /  11.7 °C 29.95in /  1014.1hPa Calm     86% 0.00in /  0mm 0 W/m2
03:14 57.3 °F /  14.1 °C 53.2 °F /  11.8 °C 29.95in /  1014.1hPa Calm     86% 0.00in /  0mm 0 W/m2
03:19 57.5 °F /  14.2 °C 53.3 °F /  11.8 °C 29.95in /  1014.1hPa Calm     86% 0.00in /  0mm 0 W/m2
03:24 57.5 °F /  14.2 °C 53.2 °F /  11.8 °C 29.95in /  1014.1hPa Calm     85.5% 0.00in /  0mm 0 W/m2
03:29 57.6 °F /  14.2 °C 53.2 °F /  11.8 °C 29.95in /  1014.1hPa Calm     85% 0.00in /  0mm 0 W/m2
03:34 57.7 °F /  14.3 °C 53.2 °F /  11.8 °C 29.95in /  1014.1hPa NNW 0.8mph /  1.3km/h 5mph /  8km/h 85% 0.00in /  0mm 0 W/m2
03:39 57.8 °F /  14.3 °C 53.2 °F /  11.8 °C 29.95in /  1014.1hPa NNW 0.6mph /  1km/h 5mph /  8km/h 84.6% 0.00in /  0mm 0 W/m2
03:44 57.8 °F /  14.3 °C 53 °F /  11.7 °C 29.95in /  1014.1hPa NW 1.8mph /  2.9km/h 11mph /  17.7km/h 84% 0.00in /  0mm 0 W/m2
03:49 57.8 °F /  14.3 °C 53 °F /  11.7 °C 29.94in /  1013.8hPa North 0.3mph /  0.5km/h 11mph /  17.7km/h 84% 0.00in /  0mm 0 W/m2
03:54 57.9 °F /  14.4 °C 53.1 °F /  11.7 °C 29.94in /  1013.8hPa Calm   11mph /  17.7km/h 84% 0.00in /  0mm 0 W/m2
03:59 57.9 °F /  14.4 °C 53.1 °F /  11.7 °C 29.94in /  1013.8hPa Calm   11mph /  17.7km/h 84% 0.00in /  0mm 0 W/m2
04:00 57.9 °F /  14.4 °C 53.1 °F /  11.7 °C 29.94in /  1013.8hPa Calm   11mph /  17.7km/h 84% 0.00in /  0mm 0 W/m2
04:09 57.9 °F /  14.4 °C 53 °F /  11.7 °C 29.94in /  1013.8hPa Calm     83.6% 0.00in /  0mm 0 W/m2
04:14 57.8 °F /  14.3 °C 53 °F /  11.7 °C 29.94in /  1013.8hPa NW 0.6mph /  1km/h 6mph /  9.7km/h 84% 0.00in /  0mm 0 W/m2
04:19 57.8 °F /  14.3 °C 52.9 °F /  11.6 °C 29.94in /  1013.8hPa NW 0.2mph /  0.3km/h 6mph /  9.7km/h 83.8% 0.00in /  0mm 0 W/m2
04:24 57.7 °F /  14.3 °C 52.9 °F /  11.6 °C 29.94in /  1013.8hPa Calm   6mph /  9.7km/h 84% 0.00in /  0mm 0 W/m2
04:29 57.6 °F /  14.2 °C 52.8 °F /  11.6 °C 29.94in /  1013.8hPa NW 0.2mph /  0.3km/h 6mph /  9.7km/h 84% 0.00in /  0mm 0 W/m2
04:34 57.5 °F /  14.2 °C 52.8 °F /  11.6 °C 29.94in /  1013.8hPa Calm   6mph /  9.7km/h 84% 0.00in /  0mm 0 W/m2
04:39 57.5 °F /  14.2 °C 52.7 °F /  11.5 °C 29.94in /  1013.8hPa Calm     84% 0.00in /  0mm 0 W/m2
04:44 57.3 °F /  14.1 °C 52.5 °F /  11.4 °C 29.94in /  1013.8hPa Calm     84% 0.00in /  0mm 0 W/m2
04:49 57.2 °F /  14 °C 52.5 °F /  11.4 °C 29.94in /  1013.8hPa Calm     84% 0.00in /  0mm 0 W/m2
04:54 57.1 °F /  13.9 °C 52.5 °F /  11.4 °C 29.94in /  1013.8hPa Calm     84.4% 0.00in /  0mm 0 W/m2
04:59 57 °F /  13.9 °C 52.6 °F /  11.4 °C 29.94in /  1013.8hPa Calm     85% 0.00in /  0mm 0 W/m2
05:04 56.9 °F /  13.8 °C 52.4 °F /  11.3 °C 29.94in /  1013.8hPa Calm     84.7% 0.00in /  0mm 0 W/m2
05:09 56.8 °F /  13.8 °C 52.4 °F /  11.3 °C 29.95in /  1014.1hPa Calm     85% 0.00in /  0mm 0 W/m2
05:14 56.7 °F /  13.7 °C 52.2 °F /  11.2 °C 29.95in /  1014.1hPa Calm     85% 0.00in /  0mm 0 W/m2
05:19 56.5 °F /  13.6 °C 52.1 °F /  11.2 °C 29.95in /  1014.1hPa Calm     85.2% 0.00in /  0mm 0 W/m2
05:24 56.3 °F /  13.5 °C 52 °F /  11.1 °C 29.95in /  1014.1hPa Calm     85.5% 0.00in /  0mm 0 W/m2
05:29 56.2 °F /  13.4 °C 52 °F /  11.1 °C 29.95in /  1014.1hPa Calm     86% 0.00in /  0mm 0 W/m2
05:34 56 °F /  13.3 °C 52.1 °F /  11.2 °C 29.95in /  1014.1hPa Calm     86.5% 0.00in /  0mm 0 W/m2
05:39 56 °F /  13.3 °C 52.2 °F /  11.2 °C 29.95in /  1014.1hPa Calm     87% 0.00in /  0mm 0 W/m2
05:44 55.8 °F /  13.2 °C 52 °F /  11.1 °C 29.95in /  1014.1hPa Calm   1mph /  1.6km/h 87% 0.00in /  0mm 0 W/m2
05:49 55.9 °F /  13.3 °C 52.3 °F /  11.3 °C 29.95in /  1014.1hPa Calm   1mph /  1.6km/h 87.8% 0.00in /  0mm 0 W/m2
05:54 55.9 °F /  13.3 °C 52.3 °F /  11.3 °C 29.95in /  1014.1hPa Calm   1mph /  1.6km/h 87.6% 0.00in /  0mm 0 W/m2
05:59 55.8 °F /  13.2 °C 52 °F /  11.1 °C 29.95in /  1014.1hPa Calm   1mph /  1.6km/h 87% 0.00in /  0mm 0 W/m2
06:04 55.7 °F /  13.2 °C 52 °F /  11.1 °C 29.95in /  1014.1hPa Calm   1mph /  1.6km/h 87.5% 0.00in /  0mm 0 W/m2
06:09 55.6 °F /  13.1 °C 52.1 °F /  11.2 °C 29.95in /  1014.1hPa Calm     88% 0.00in /  0mm 0 W/m2
06:14 55.5 °F /  13.1 °C 52 °F /  11.1 °C 29.95in /  1014.1hPa Calm     88% 0.00in /  0mm 0 W/m2
06:19 55.5 °F /  13.1 °C 52 °F /  11.1 °C 29.95in /  1014.1hPa Calm     88% 0.00in /  0mm 0 W/m2
06:24 55.4 °F /  13 °C 51.9 °F /  11.1 °C 29.95in /  1014.1hPa Calm     88% 0.00in /  0mm 0 W/m2
06:29 55.4 °F /  13 °C 51.9 °F /  11.1 °C 29.95in /  1014.1hPa Calm     88% 0.00in /  0mm 5 W/m2
06:34 55.4 °F /  13 °C 52.1 °F /  11.2 °C 29.96in /  1014.4hPa Calm     88.7% 0.00in /  0mm 7 W/m2
06:39 55.4 °F /  13 °C 52.2 °F /  11.2 °C 29.96in /  1014.4hPa Calm     89% 0.00in /  0mm 7 W/m2
06:44 55.3 °F /  12.9 °C 52.1 °F /  11.2 °C 29.96in /  1014.4hPa Calm     89% 0.00in /  0mm 12 W/m2
06:49 55.3 °F /  12.9 °C 52.1 °F /  11.2 °C 29.96in /  1014.4hPa Calm     89% 0.00in /  0mm 14 W/m2
06:54 55.2 °F /  12.9 °C 52 °F /  11.1 °C 29.97in /  1014.8hPa Calm     89% 0.00in /  0mm 14 W/m2
06:59 55.2 °F /  12.9 °C 52 °F /  11.1 °C 29.97in /  1014.8hPa Calm     89% 0.00in /  0mm 14 W/m2
07:04 55.2 °F /  12.9 °C 52.1 °F /  11.2 °C 29.97in /  1014.8hPa Calm     89.4% 0.00in /  0mm 16 W/m2
07:09 55.2 °F /  12.9 °C 52.3 °F /  11.3 °C 29.97in /  1014.8hPa Calm     90% 0.00in /  0mm 18 W/m2
07:14 55.2 °F /  12.9 °C 52.3 °F /  11.3 °C 29.97in /  1014.8hPa Calm     90% 0.00in /  0mm 21 W/m2
07:19 55.3 °F /  12.9 °C 52.4 °F /  11.3 °C 29.97in /  1014.8hPa Calm     90% 0.00in /  0mm 21 W/m2
07:24 55.3 °F /  12.9 °C 52.5 °F /  11.4 °C 29.97in /  1014.8hPa Calm     90% 0.00in /  0mm 21 W/m2
07:29 55.5 °F /  13.1 °C 52.7 °F /  11.5 °C 29.97in /  1014.8hPa Calm     90% 0.00in /  0mm 21 W/m2
07:34 55.8 °F /  13.2 °C 52.9 °F /  11.6 °C 29.98in /  1015.1hPa Calm     90% 0.00in /  0mm 21 W/m2
07:39 56.1 °F /  13.4 °C 53.2 °F /  11.8 °C 29.98in /  1015.1hPa NW 0.1mph /  0.2km/h 2mph /  3.2km/h 90% 0.00in /  0mm 23 W/m2
07:44 56.4 °F /  13.6 °C 53.4 °F /  11.9 °C 29.98in /  1015.1hPa Calm   2mph /  3.2km/h 89.7% 0.00in /  0mm 25 W/m2
07:49 56.7 °F /  13.7 °C 53.5 °F /  11.9 °C 29.98in /  1015.1hPa NW 0.1mph /  0.2km/h 2mph /  3.2km/h 89% 0.00in /  0mm 30 W/m2
07:54 57 °F /  13.9 °C 53.7 °F /  12.1 °C 29.98in /  1015.1hPa NW 0.2mph /  0.3km/h 3mph /  4.8km/h 88.9% 0.00in /  0mm 33 W/m2
07:59 57.3 °F /  14.1 °C 53.8 °F /  12.1 °C 29.98in /  1015.1hPa NNE 0.1mph /  0.2km/h 3mph /  4.8km/h 88% 0.00in /  0mm 39 W/m2
08:00 57.5 °F /  14.2 °C 54 °F /  12.2 °C 29.98in /  1015.1hPa Calm   3mph /  4.8km/h 88% 0.00in /  0mm 39 W/m2
08:09 58 °F /  14.4 °C 53.8 °F /  12.1 °C 29.98in /  1015.1hPa Calm     86% 0.00in /  0mm 63 W/m2
08:14 58.4 °F /  14.7 °C 54 °F /  12.2 °C 29.98in /  1015.1hPa Calm     85.5% 0.00in /  0mm 63 W/m2
08:19 58.7 °F /  14.8 °C 54.2 °F /  12.3 °C 29.98in /  1015.1hPa NNE 0.3mph /  0.5km/h 4mph /  6.4km/h 85% 0.00in /  0mm 134 W/m2
08:24 59.1 °F /  15.1 °C 54.6 °F /  12.6 °C 29.98in /  1015.1hPa Calm   4mph /  6.4km/h 84.8% 0.00in /  0mm 371 W/m2
08:29 59.7 °F /  15.4 °C 54.8 °F /  12.7 °C 29.98in /  1015.1hPa Calm   4mph /  6.4km/h 84% 0.00in /  0mm 390 W/m2
08:34 60.5 °F /  15.8 °C 55.6 °F /  13.1 °C 29.98in /  1015.1hPa NNE 0.1mph /  0.2km/h 4mph /  6.4km/h 83.7% 0.00in /  0mm 408 W/m2
08:39 61.7 °F /  16.5 °C 56.2 °F /  13.4 °C 29.98in /  1015.1hPa Calm   2mph /  3.2km/h 82.1% 0.00in /  0mm 425 W/m2
08:44 62.8 °F /  17.1 °C 56.5 °F /  13.6 °C 29.98in /  1015.1hPa North 0.4mph /  0.6km/h 3mph /  4.8km/h 79.8% 0.00in /  0mm 439 W/m2
08:49 63.9 °F /  17.7 °C 56.6 °F /  13.7 °C 29.98in /  1015.1hPa NE 0.1mph /  0.2km/h 3mph /  4.8km/h 77.1% 0.00in /  0mm 457 W/m2
08:54 64.8 °F /  18.2 °C 57.1 °F /  13.9 °C 29.98in /  1015.1hPa Calm   3mph /  4.8km/h 76.3% 0.00in /  0mm 475 W/m2
08:59 65.7 °F /  18.7 °C 57.1 °F /  13.9 °C 29.98in /  1015.1hPa East 0.3mph /  0.5km/h 5mph /  8km/h 73.8% 0.00in /  0mm 492 W/m2
09:04 66.5 °F /  19.2 °C 57 °F /  13.9 °C 29.98in /  1015.1hPa East 0.4mph /  0.6km/h 5mph /  8km/h 71.5% 0.00in /  0mm 506 W/m2
09:09 67.1 °F /  19.5 °C 57.8 °F /  14.3 °C 29.98in /  1015.1hPa NE 0.1mph /  0.2km/h 3mph /  4.8km/h 72% 0.00in /  0mm 520 W/m2
09:14 67.7 °F /  19.8 °C 57.8 °F /  14.3 °C 29.98in /  1015.1hPa NW 1.1mph /  1.8km/h 5mph /  8km/h 70.4% 0.00in /  0mm 536 W/m2
09:19 68.2 °F /  20.1 °C 57.9 °F /  14.4 °C 29.98in /  1015.1hPa NW 0.7mph /  1.1km/h 5mph /  8km/h 69.6% 0.00in /  0mm 550 W/m2
09:24 68.7 °F /  20.4 °C 58.5 °F /  14.7 °C 29.98in /  1015.1hPa North 0.3mph /  0.5km/h 5mph /  8km/h 69.8% 0.00in /  0mm 564 W/m2
09:29 69 °F /  20.6 °C 58.2 °F /  14.6 °C 29.98in /  1015.1hPa North 0.1mph /  0.2km/h 5mph /  8km/h 68.3% 0.00in /  0mm 580 W/m2
09:34 69.1 °F /  20.6 °C 58.2 °F /  14.6 °C 29.98in /  1015.1hPa North 0.9mph /  1.4km/h 5mph /  8km/h 68.1% 0.00in /  0mm 596 W/m2
09:39 69.3 °F /  20.7 °C 58.3 °F /  14.6 °C 29.98in /  1015.1hPa NE 0.3mph /  0.5km/h 4mph /  6.4km/h 68% 0.00in /  0mm 608 W/m2
09:44 69.6 °F /  20.9 °C 58.4 °F /  14.7 °C 29.98in /  1015.1hPa ENE 0.2mph /  0.3km/h 4mph /  6.4km/h 67.6% 0.00in /  0mm 624 W/m2
09:49 69.9 °F /  21.1 °C 58.9 °F /  14.9 °C 29.98in /  1015.1hPa Calm   4mph /  6.4km/h 68.1% 0.00in /  0mm 636 W/m2
09:54 70.4 °F /  21.3 °C 59.5 °F /  15.3 °C 29.98in /  1015.1hPa NNW 1.2mph /  1.9km/h 6mph /  9.7km/h 68.5% 0.00in /  0mm 650 W/m2
09:59 70.9 °F /  21.6 °C 59.2 °F /  15.1 °C 29.98in /  1015.1hPa ENE 0.3mph /  0.5km/h 6mph /  9.7km/h 66.4% 0.00in /  0mm 663 W/m2
10:04 71.3 °F /  21.8 °C 59.3 °F /  15.2 °C 29.98in /  1015.1hPa NW 1.1mph /  1.8km/h 7mph /  11.3km/h 65.8% 0.00in /  0mm 677 W/m2
10:09 71.8 °F /  22.1 °C 59.3 °F /  15.2 °C 29.98in /  1015.1hPa North 1.3mph /  2.1km/h 7mph /  11.3km/h 64.8% 0.00in /  0mm 691 W/m2
10:14 72 °F /  22.2 °C 58.7 °F /  14.8 °C 29.98in /  1015.1hPa NE 1mph /  1.6km/h 7mph /  11.3km/h 62.9% 0.00in /  0mm 700 W/m2
10:19 72 °F /  22.2 °C 58.9 °F /  14.9 °C 29.98in /  1015.1hPa NW 1.5mph /  2.4km/h 9mph /  14.5km/h 63.3% 0.00in /  0mm 712 W/m2
10:24 71.9 °F /  22.2 °C 58.4 °F /  14.7 °C 29.98in /  1015.1hPa ENE 0.7mph /  1.1km/h 9mph /  14.5km/h 62.4% 0.00in /  0mm 731 W/m2
10:29 72.1 °F /  22.3 °C 59.9 °F /  15.5 °C 29.98in /  1015.1hPa NNE 0.9mph /  1.4km/h 9mph /  14.5km/h 65.3% 0.00in /  0mm 782 W/m2
10:34 72.6 °F /  22.6 °C 59.4 °F /  15.2 °C 29.98in /  1015.1hPa NNE 0.7mph /  1.1km/h 9mph /  14.5km/h 63.2% 0.00in /  0mm 812 W/m2
10:39 73 °F /  22.8 °C 59.1 °F /  15.1 °C 29.98in /  1015.1hPa NNW 2.1mph /  3.4km/h 11mph /  17.7km/h 61.8% 0.00in /  0mm 812 W/m2
10:44 73.4 °F /  23 °C 59.4 °F /  15.2 °C 29.98in /  1015.1hPa NW 2.6mph /  4.2km/h 11mph /  17.7km/h 61.6% 0.00in /  0mm 798 W/m2
10:49 73.7 °F /  23.2 °C 58.9 °F /  14.9 °C 29.98in /  1015.1hPa NW 2.7mph /  4.3km/h 11mph /  17.7km/h 60% 0.00in /  0mm 842 W/m2
10:54 73.9 °F /  23.3 °C 59.1 °F /  15.1 °C 29.98in /  1015.1hPa NW 2.4mph /  3.9km/h 11mph /  17.7km/h 60% 0.00in /  0mm 872 W/m2
10:59 73.6 °F /  23.1 °C 58.6 °F /  14.8 °C 29.98in /  1015.1hPa NNW 0.8mph /  1.3km/h 11mph /  17.7km/h 59.3% 0.00in /  0mm 872 W/m2
11:04 73 °F /  22.8 °C 58.3 °F /  14.6 °C 29.97in /  1014.8hPa NW 2.6mph /  4.2km/h 11mph /  17.7km/h 60% 0.00in /  0mm 881 W/m2
11:09 72.5 °F /  22.5 °C 58.8 °F /  14.9 °C 29.97in /  1014.8hPa WNW 2.8mph /  4.5km/h 10mph /  16.1km/h 62% 0.00in /  0mm 911 W/m2
11:14 72.4 °F /  22.4 °C 58.3 °F /  14.6 °C 29.97in /  1014.8hPa WNW 4mph /  6.4km/h 10mph /  16.1km/h 61.2% 0.00in /  0mm 1011 W/m2
11:19 72.5 °F /  22.5 °C 58.4 °F /  14.7 °C 29.97in /  1014.8hPa NW 1.3mph /  2.1km/h 10mph /  16.1km/h 61.2% 0.00in /  0mm 241 W/m2
11:24 72.2 °F /  22.3 °C 58 °F /  14.4 °C 29.97in /  1014.8hPa NW 0.8mph /  1.3km/h 10mph /  16.1km/h 61% 0.00in /  0mm 137 W/m2
11:29 71.8 °F /  22.1 °C 57.7 °F /  14.3 °C 29.97in /  1014.8hPa NW 2.1mph /  3.4km/h 10mph /  16.1km/h 61.3% 0.00in /  0mm 940 W/m2
11:34 71.5 °F /  21.9 °C 58.2 °F /  14.6 °C 29.97in /  1014.8hPa NW 1.9mph /  3.1km/h 10mph /  16.1km/h 62.7% 0.00in /  0mm 972 W/m2
11:39 72 °F /  22.2 °C 58.9 °F /  14.9 °C 29.97in /  1014.8hPa NW 1.4mph /  2.3km/h 6mph /  9.7km/h 63.3% 0.00in /  0mm 1041 W/m2
11:44 72.7 °F /  22.6 °C 58.5 °F /  14.7 °C 29.97in /  1014.8hPa NW 1.5mph /  2.4km/h 7mph /  11.3km/h 61% 0.00in /  0mm 1041 W/m2
11:49 73.1 °F /  22.8 °C 57.6 °F /  14.2 °C 29.97in /  1014.8hPa NW 3.8mph /  6.1km/h 11mph /  17.7km/h 58.2% 0.00in /  0mm 1018 W/m2
11:54 72.7 °F /  22.6 °C 56.4 °F /  13.6 °C 29.96in /  1014.4hPa NW 4mph /  6.4km/h 11mph /  17.7km/h 56.7% 0.00in /  0mm 932 W/m2
11:59 72.3 °F /  22.4 °C 56.8 °F /  13.8 °C 29.96in /  1014.4hPa North 1.1mph /  1.8km/h 11mph /  17.7km/h 58.2% 0.00in /  0mm 946 W/m2
12:00 72.3 °F /  22.4 °C 56.7 °F /  13.7 °C 29.96in /  1014.4hPa Calm   11mph /  17.7km/h 58% 0.00in /  0mm 925 W/m2
12:09 72.8 °F /  22.7 °C 57.6 °F /  14.2 °C 29.96in /  1014.4hPa NNW 1.4mph /  2.3km/h 12mph /  19.3km/h 58.9% 0.00in /  0mm 179 W/m2
12:14 73 °F /  22.8 °C 58.1 °F /  14.5 °C 29.96in /  1014.4hPa NNW 1mph /  1.6km/h 12mph /  19.3km/h 59.6% 0.00in /  0mm 227 W/m2
12:19 73.1 °F /  22.8 °C 57 °F /  13.9 °C 29.96in /  1014.4hPa North 2.1mph /  3.4km/h 12mph /  19.3km/h 57.1% 0.00in /  0mm 223 W/m2
12:24 72.9 °F /  22.7 °C 56.6 °F /  13.7 °C 29.96in /  1014.4hPa NNE 1.5mph /  2.4km/h 12mph /  19.3km/h 56.7% 0.00in /  0mm 304 W/m2
12:29 72.5 °F /  22.5 °C 56.1 °F /  13.4 °C 29.95in /  1014.1hPa North 0.3mph /  0.5km/h 12mph /  19.3km/h 56.3% 0.00in /  0mm 209 W/m2
12:34 72.3 °F /  22.4 °C 57.3 °F /  14.1 °C 29.95in /  1014.1hPa NW 1.8mph /  2.9km/h 12mph /  19.3km/h 59.3% 0.00in /  0mm 223 W/m2
12:39 72.3 °F /  22.4 °C 56.8 °F /  13.8 °C 29.95in /  1014.1hPa WNW 2.3mph /  3.7km/h 10mph /  16.1km/h 58.2% 0.00in /  0mm 287 W/m2
12:44 72.5 °F /  22.5 °C 56.9 °F /  13.8 °C 29.95in /  1014.1hPa NW 4.1mph /  6.6km/h 11mph /  17.7km/h 58% 0.00in /  0mm 239 W/m2
12:49 72.5 °F /  22.5 °C 56.5 °F /  13.6 °C 29.95in /  1014.1hPa WNW 3.1mph /  5km/h 11mph /  17.7km/h 57.2% 0.00in /  0mm 232 W/m2
12:54 72.4 °F /  22.4 °C 56.7 °F /  13.7 °C 29.95in /  1014.1hPa NNW 1.1mph /  1.8km/h 11mph /  17.7km/h 57.6% 0.00in /  0mm 232 W/m2
12:59 72.5 °F /  22.5 °C 56.7 °F /  13.7 °C 29.95in /  1014.1hPa NE 1.3mph /  2.1km/h 11mph /  17.7km/h 57.5% 0.00in /  0mm 251 W/m2
13:04 72.4 °F /  22.4 °C 56.7 °F /  13.7 °C 29.95in /  1014.1hPa NE 0.5mph /  0.8km/h 11mph /  17.7km/h 57.8% 0.00in /  0mm 251 W/m2
13:09 72.3 °F /  22.4 °C 57 °F /  13.9 °C 29.95in /  1014.1hPa NNE 1.3mph /  2.1km/h 6mph /  9.7km/h 58.5% 0.00in /  0mm 686 W/m2
13:14 72.3 °F /  22.4 °C 56.7 °F /  13.7 °C 29.95in /  1014.1hPa North 0.2mph /  0.3km/h 6mph /  9.7km/h 58% 0.00in /  0mm 204 W/m2
13:18 72.3 °F /  22.4 °C 56.8 °F /  13.8 °C 29.95in /  1014.1hPa NE 1.4mph /  2.3km/h 9mph /  14.5km/h 58.2% 0.00in /  0mm 186 W/m2
13:24 72.2 °F /  22.3 °C 57.1 °F /  13.9 °C 29.95in /  1014.1hPa NW 1.1mph /  1.8km/h 9mph /  14.5km/h 59% 0.00in /  0mm 1081 W/m2
13:29 72.6 °F /  22.6 °C 57.6 °F /  14.2 °C 29.95in /  1014.1hPa NNW 3.4mph /  5.5km/h 12mph /  19.3km/h 59.4% 0.00in /  0mm 1081 W/m2
13:34 72.8 °F /  22.7 °C 56.5 °F /  13.6 °C 29.95in /  1014.1hPa NNW 0.6mph /  1km/h 12mph /  19.3km/h 56.7% 0.00in /  0mm 169 W/m2
13:39 72.4 °F /  22.4 °C 56.2 °F /  13.4 °C 29.95in /  1014.1hPa NNW 2.7mph /  4.3km/h 12mph /  19.3km/h 56.7% 0.00in /  0mm 234 W/m2
13:44 72.1 °F /  22.3 °C 56.7 °F /  13.7 °C 29.95in /  1014.1hPa NNW 1.1mph /  1.8km/h 12mph /  19.3km/h 58.3% 0.00in /  0mm 466 W/m2
13:49 72.2 °F /  22.3 °C 57.1 °F /  13.9 °C 29.95in /  1014.1hPa NW 3.1mph /  5km/h 12mph /  19.3km/h 59.2% 0.00in /  0mm 272 W/m2
13:54 72.3 °F /  22.4 °C 57.2 °F /  14 °C 29.95in /  1014.1hPa NNW 2.6mph /  4.2km/h 12mph /  19.3km/h 59% 0.00in /  0mm 390 W/m2
13:59 72.4 °F /  22.4 °C 56.8 °F /  13.8 °C 29.95in /  1014.1hPa NNW 0.8mph /  1.3km/h 12mph /  19.3km/h 58% 0.00in /  0mm 390 W/m2
14:04 72.4 °F /  22.4 °C 57.1 °F /  13.9 °C 29.95in /  1014.1hPa NW 0.3mph /  0.5km/h 12mph /  19.3km/h 58.6% 0.00in /  0mm 207 W/m2
14:09 72.5 °F /  22.5 °C 57.6 °F /  14.2 °C 29.95in /  1014.1hPa WNW 1mph /  1.6km/h 8mph /  12.9km/h 59.5% 0.00in /  0mm 221 W/m2
14:14 72.6 °F /  22.6 °C 57.8 °F /  14.3 °C 29.95in /  1014.1hPa NNW 2.4mph /  3.9km/h 9mph /  14.5km/h 59.6% 0.00in /  0mm 990 W/m2
14:19 72.8 °F /  22.7 °C 57.4 °F /  14.1 °C 29.95in /  1014.1hPa NW 1.8mph /  2.9km/h 9mph /  14.5km/h 58.5% 0.00in /  0mm 990 W/m2
14:24 72.9 °F /  22.7 °C 56.6 °F /  13.7 °C 29.94in /  1013.8hPa NW 3mph /  4.8km/h 13mph /  20.9km/h 56.6% 0.00in /  0mm 357 W/m2
14:29 72.8 °F /  22.7 °C 56.1 °F /  13.4 °C 29.94in /  1013.8hPa North 0.3mph /  0.5km/h 13mph /  20.9km/h 55.9% 0.00in /  0mm 199 W/m2
14:34 72.6 °F /  22.6 °C 56.5 °F /  13.6 °C 29.94in /  1013.8hPa North 0.8mph /  1.3km/h 13mph /  20.9km/h 56.9% 0.00in /  0mm 279 W/m2
14:39 72.6 °F /  22.6 °C 57.1 °F /  13.9 °C 29.94in /  1013.8hPa NNW 1.6mph /  2.6km/h 6mph /  9.7km/h 58.2% 0.00in /  0mm 394 W/m2
14:44 72.7 °F /  22.6 °C 57.1 °F /  13.9 °C 29.94in /  1013.8hPa NNW 2mph /  3.2km/h 9mph /  14.5km/h 58% 0.00in /  0mm 318 W/m2
14:49 72.7 °F /  22.6 °C 56.6 °F /  13.7 °C 29.94in /  1013.8hPa NNW 1.1mph /  1.8km/h 9mph /  14.5km/h 57% 0.00in /  0mm 192 W/m2
14:54 72.7 °F /  22.6 °C 57.2 °F /  14 °C 29.94in /  1013.8hPa NNW 0.1mph /  0.2km/h 9mph /  14.5km/h 58.2% 0.00in /  0mm 965 W/m2
14:59 72.9 °F /  22.7 °C 56.8 °F /  13.8 °C 29.94in /  1013.8hPa NNW 1.8mph /  2.9km/h 9mph /  14.5km/h 57% 0.00in /  0mm 965 W/m2
15:04 73.1 °F /  22.8 °C 55.9 °F /  13.3 °C 29.94in /  1013.8hPa NW 2.6mph /  4.2km/h 9mph /  14.5km/h 54.7% 0.00in /  0mm 983 W/m2
15:09 73.3 °F /  22.9 °C 55.8 °F /  13.2 °C 29.94in /  1013.8hPa NW 2.5mph /  4km/h 9mph /  14.5km/h 54.3% 0.00in /  0mm 865 W/m2
15:14 73.7 °F /  23.2 °C 57 °F /  13.9 °C 29.93in /  1013.4hPa NW 1.6mph /  2.6km/h 9mph /  14.5km/h 56% 0.00in /  0mm 942 W/m2
15:19 74.1 °F /  23.4 °C 56.7 °F /  13.7 °C 29.93in /  1013.4hPa NNW 0.8mph /  1.3km/h 9mph /  14.5km/h 54.5% 0.00in /  0mm 942 W/m2
15:24 74.5 °F /  23.6 °C 57.6 °F /  14.2 °C 29.93in /  1013.4hPa NNW 0.5mph /  0.8km/h 9mph /  14.5km/h 55.5% 0.00in /  0mm 279 W/m2
15:29 74.7 °F /  23.7 °C 56.9 °F /  13.8 °C 29.93in /  1013.4hPa NNW 3.5mph /  5.6km/h 11mph /  17.7km/h 53.8% 0.00in /  0mm 162 W/m2
15:34 74.4 °F /  23.6 °C 55.7 °F /  13.2 °C 29.94in /  1013.8hPa NW 2.5mph /  4km/h 11mph /  17.7km/h 52.1% 0.00in /  0mm 148 W/m2
15:39 73.9 °F /  23.3 °C 56.2 °F /  13.4 °C 29.94in /  1013.8hPa NNW 3.6mph /  5.8km/h 9mph /  14.5km/h 53.9% 0.00in /  0mm 132 W/m2
15:44 73.5 °F /  23.1 °C 56.1 °F /  13.4 °C 29.94in /  1013.8hPa NW 2.2mph /  3.5km/h 9mph /  14.5km/h 54.5% 0.00in /  0mm 744 W/m2
15:49 73.4 °F /  23 °C 56 °F /  13.3 °C 29.94in /  1013.8hPa NW 2.6mph /  4.2km/h 9mph /  14.5km/h 54.5% 0.00in /  0mm 782 W/m2
15:54 73.6 °F /  23.1 °C 56.2 °F /  13.4 °C 29.94in /  1013.8hPa WNW 1.6mph /  2.6km/h 9mph /  14.5km/h 54.4% 0.00in /  0mm 782 W/m2
15:59 73.6 °F /  23.1 °C 55.6 °F /  13.1 °C 29.94in /  1013.8hPa WNW 1.1mph /  1.8km/h 9mph /  14.5km/h 53.3% 0.00in /  0mm 120 W/m2
16:00 73.5 °F /  23.1 °C 56.4 °F /  13.6 °C 29.94in /  1013.8hPa Calm   9mph /  14.5km/h 55% 0.00in /  0mm 97 W/m2
16:09 73.2 °F /  22.9 °C 55.3 °F /  12.9 °C 29.94in /  1013.8hPa NW 0.6mph /  1km/h 4mph /  6.4km/h 53.6% 0.00in /  0mm 83 W/m2
16:14 73 °F /  22.8 °C 55.8 °F /  13.2 °C 29.94in /  1013.8hPa NW 1mph /  1.6km/h 5mph /  8km/h 54.8% 0.00in /  0mm 63 W/m2
16:19 72.7 °F /  22.6 °C 55.5 °F /  13.1 °C 29.94in /  1013.8hPa NW 1.9mph /  3.1km/h 7mph /  11.3km/h 54.7% 0.00in /  0mm 62 W/m2
16:24 72.6 °F /  22.6 °C 56 °F /  13.3 °C 29.94in /  1013.8hPa NNW 1.2mph /  1.9km/h 7mph /  11.3km/h 56.1% 0.00in /  0mm 93 W/m2
16:29 72.7 °F /  22.6 °C 56 °F /  13.3 °C 29.94in /  1013.8hPa NW 1.9mph /  3.1km/h 9mph /  14.5km/h 55.7% 0.00in /  0mm 93 W/m2
16:34 72.9 °F /  22.7 °C 55.3 °F /  12.9 °C 29.94in /  1013.8hPa WNW 2.7mph /  4.3km/h 9mph /  14.5km/h 54.1% 0.00in /  0mm 62 W/m2
16:39 73 °F /  22.8 °C 55.5 °F /  13.1 °C 29.94in /  1013.8hPa WNW 2.2mph /  3.5km/h 10mph /  16.1km/h 54.3% 0.00in /  0mm 37 W/m2
16:44 73 °F /  22.8 °C 55.8 °F /  13.2 °C 29.94in /  1013.8hPa West 1.5mph /  2.4km/h 10mph /  16.1km/h 54.8% 0.00in /  0mm 39 W/m2
16:49 73.1 °F /  22.8 °C 56.3 °F /  13.5 °C 29.94in /  1013.8hPa WNW 1.2mph /  1.9km/h 10mph /  16.1km/h 55.6% 0.00in /  0mm 63 W/m2
16:54 73.1 °F /  22.8 °C 56.5 °F /  13.6 °C 29.94in /  1013.8hPa WNW 2.3mph /  3.7km/h 10mph /  16.1km/h 56% 0.00in /  0mm 63 W/m2
16:59 73.3 °F /  22.9 °C 56.2 °F /  13.4 °C 29.94in /  1013.8hPa NNW 2.2mph /  3.5km/h 10mph /  16.1km/h 55.2% 0.00in /  0mm 76 W/m2
17:04 73.4 °F /  23 °C 56.6 °F /  13.7 °C 29.94in /  1013.8hPa West 2.1mph /  3.4km/h 10mph /  16.1km/h 55.7% 0.00in /  0mm 90 W/m2
17:09 73.6 °F /  23.1 °C 56 °F /  13.3 °C 29.94in /  1013.8hPa WNW 5.4mph /  8.7km/h 12mph /  19.3km/h 54.2% 0.00in /  0mm 90 W/m2
17:14 73.6 °F /  23.1 °C 55.8 °F /  13.2 °C 29.94in /  1013.8hPa NW 3.3mph /  5.3km/h 12mph /  19.3km/h 53.6% 0.00in /  0mm 63 W/m2
17:19 73.6 °F /  23.1 °C 56.3 °F /  13.5 °C 29.94in /  1013.8hPa NNW 2.5mph /  4km/h 12mph /  19.3km/h 54.7% 0.00in /  0mm 54 W/m2
17:24 73.6 °F /  23.1 °C 56.2 °F /  13.4 °C 29.94in /  1013.8hPa NNW 2mph /  3.2km/h 12mph /  19.3km/h 54.4% 0.00in /  0mm 49 W/m2
17:29 73.6 °F /  23.1 °C 56 °F /  13.3 °C 29.94in /  1013.8hPa NW 2.3mph /  3.7km/h 12mph /  19.3km/h 54% 0.00in /  0mm 69 W/m2
17:34 73.5 °F /  23.1 °C 55.8 °F /  13.2 °C 29.94in /  1013.8hPa NNW 0.6mph /  1km/h 12mph /  19.3km/h 53.7% 0.00in /  0mm 62 W/m2
17:39 73.5 °F /  23.1 °C 55.9 °F /  13.3 °C 29.94in /  1013.8hPa NNW 2mph /  3.2km/h 7mph /  11.3km/h 54.2% 0.00in /  0mm 60 W/m2
17:44 73.3 °F /  22.9 °C 55.6 °F /  13.1 °C 29.94in /  1013.8hPa NW 3.8mph /  6.1km/h 10mph /  16.1km/h 53.8% 0.00in /  0mm 25 W/m2
17:49 73 °F /  22.8 °C 55.9 °F /  13.3 °C 29.94in /  1013.8hPa NNW 1.3mph /  2.1km/h 10mph /  16.1km/h 55% 0.00in /  0mm 25 W/m2
17:54 72.9 °F /  22.7 °C 56.4 °F /  13.6 °C 29.94in /  1013.8hPa NNW 1.7mph /  2.7km/h 10mph /  16.1km/h 56.3% 0.00in /  0mm 23 W/m2
17:59 72.5 °F /  22.5 °C 55.1 °F /  12.8 °C 29.94in /  1013.8hPa WNW 1.7mph /  2.7km/h 10mph /  16.1km/h 54.3% 0.00in /  0mm 21 W/m2
18:04 72.2 °F /  22.3 °C 55.1 °F /  12.8 °C 29.94in /  1013.8hPa NW 0.5mph /  0.8km/h 10mph /  16.1km/h 54.8% 0.00in /  0mm 21 W/m2
18:09 72 °F /  22.2 °C 55.2 °F /  12.9 °C 29.94in /  1013.8hPa NNW 1mph /  1.6km/h 7mph /  11.3km/h 55.5% 0.00in /  0mm 21 W/m2
18:14 71.9 °F /  22.2 °C 55.2 °F /  12.9 °C 29.94in /  1013.8hPa NNW 2.3mph /  3.7km/h 7mph /  11.3km/h 55.7% 0.00in /  0mm 21 W/m2
18:19 71.7 °F /  22.1 °C 55.6 °F /  13.1 °C 29.94in /  1013.8hPa NW 1.4mph /  2.3km/h 7mph /  11.3km/h 56.8% 0.00in /  0mm 19 W/m2
18:24 71.5 °F /  21.9 °C 55.8 °F /  13.2 °C 29.94in /  1013.8hPa WNW 0.6mph /  1km/h 7mph /  11.3km/h 57.6% 0.00in /  0mm 19 W/m2
18:29 71.3 °F /  21.8 °C 55.8 °F /  13.2 °C 29.94in /  1013.8hPa WNW 0.8mph /  1.3km/h 7mph /  11.3km/h 58% 0.00in /  0mm 16 W/m2
18:34 71.1 °F /  21.7 °C 55.7 °F /  13.2 °C 29.94in /  1013.8hPa WNW 0.5mph /  0.8km/h 7mph /  11.3km/h 58.2% 0.00in /  0mm 16 W/m2
18:39 70.9 °F /  21.6 °C 55.6 °F /  13.1 °C 29.94in /  1013.8hPa WNW 0.5mph /  0.8km/h 5mph /  8km/h 58.5% 0.00in /  0mm 16 W/m2
18:44 70.7 °F /  21.5 °C 56 °F /  13.3 °C 29.94in /  1013.8hPa WNW 0.5mph /  0.8km/h 5mph /  8km/h 59.7% 0.00in /  0mm 14 W/m2
18:49 70.5 °F /  21.4 °C 56 °F /  13.3 °C 29.94in /  1013.8hPa WNW 0.1mph /  0.2km/h 5mph /  8km/h 60% 0.00in /  0mm 12 W/m2
18:54 70.4 °F /  21.3 °C 56 °F /  13.3 °C 29.94in /  1013.8hPa WNW 0.5mph /  0.8km/h 5mph /  8km/h 60.4% 0.00in /  0mm 11 W/m2
18:59 70.1 °F /  21.2 °C 56 °F /  13.3 °C 29.94in /  1013.8hPa Calm   5mph /  8km/h 60.8% 0.00in /  0mm 9 W/m2
19:04 69.9 °F /  21.1 °C 56.1 °F /  13.4 °C 29.94in /  1013.8hPa Calm   5mph /  8km/h 61.5% 0.00in /  0mm 7 W/m2
19:09 69.7 °F /  20.9 °C 56.5 °F /  13.6 °C 29.95in /  1014.1hPa WNW 0.3mph /  0.5km/h 3mph /  4.8km/h 62.7% 0.00in /  0mm 5 W/m2
19:14 69.5 °F /  20.8 °C 56.8 °F /  13.8 °C 29.94in /  1013.8hPa Calm   3mph /  4.8km/h 64% 0.00in /  0mm 0 W/m2
19:19 69.2 °F /  20.7 °C 56.5 °F /  13.6 °C 29.95in /  1014.1hPa Calm   3mph /  4.8km/h 64% 0.00in /  0mm 0 W/m2
19:24 68.9 °F /  20.5 °C 56.4 °F /  13.6 °C 29.95in /  1014.1hPa Calm   3mph /  4.8km/h 64.4% 0.00in /  0mm 0 W/m2
19:29 68.7 °F /  20.4 °C 56.4 °F /  13.6 °C 29.95in /  1014.1hPa Calm   3mph /  4.8km/h 65% 0.00in /  0mm 0 W/m2
19:34 68.4 °F /  20.2 °C 56.6 °F /  13.7 °C 29.96in /  1014.4hPa Calm   3mph /  4.8km/h 65.9% 0.00in /  0mm 0 W/m2
19:39 68.1 °F /  20.1 °C 56.7 °F /  13.7 °C 29.96in /  1014.4hPa Calm     66.9% 0.00in /  0mm 0 W/m2
19:44 67.8 °F /  19.9 °C 56.9 °F /  13.8 °C 29.96in /  1014.4hPa Calm     68% 0.00in /  0mm 0 W/m2
19:49 67.5 °F /  19.7 °C 56.9 °F /  13.8 °C 29.96in /  1014.4hPa Calm     68.7% 0.00in /  0mm 0 W/m2
19:54 67.2 °F /  19.6 °C 56.9 °F /  13.8 °C 29.96in /  1014.4hPa Calm     69.3% 0.00in /  0mm 0 W/m2
19:59 66.9 °F /  19.4 °C 56.9 °F /  13.8 °C 29.96in /  1014.4hPa Calm     70.1% 0.00in /  0mm 0 W/m2
20:00 66.7 °F /  19.3 °C 57 °F /  13.9 °C 29.96in /  1014.4hPa Calm     71% 0.00in /  0mm 0 W/m2
20:09 66.2 °F /  19 °C 57.2 °F /  14 °C 29.97in /  1014.8hPa Calm     72.9% 0.00in /  0mm 0 W/m2
20:14 65.9 °F /  18.8 °C 57 °F /  13.9 °C 29.97in /  1014.8hPa Calm     73% 0.00in /  0mm 0 W/m2
20:19 65.5 °F /  18.6 °C 56.9 °F /  13.8 °C 29.97in /  1014.8hPa Calm     73.7% 0.00in /  0mm 0 W/m2
20:24 65.2 °F /  18.4 °C 56.8 °F /  13.8 °C 29.97in /  1014.8hPa Calm     74.3% 0.00in /  0mm 0 W/m2
20:29 64.9 °F /  18.3 °C 56.5 °F /  13.6 °C 29.97in /  1014.8hPa Calm     74% 0.00in /  0mm 0 W/m2
20:34 64.7 °F /  18.2 °C 56.6 °F /  13.7 °C 29.97in /  1014.8hPa Calm     74.9% 0.00in /  0mm 0 W/m2
20:39 64.6 °F /  18.1 °C 56.6 °F /  13.7 °C 29.97in /  1014.8hPa Calm     75.2% 0.00in /  0mm 0 W/m2
20:44 64.5 °F /  18.1 °C 56.7 °F /  13.7 °C 29.98in /  1015.1hPa Calm     75.8% 0.00in /  0mm 0 W/m2
20:49 64.4 °F /  18 °C 56.6 °F /  13.7 °C 29.98in /  1015.1hPa Calm     76% 0.00in /  0mm 0 W/m2
20:54 64.2 °F /  17.9 °C 56.5 °F /  13.6 °C 29.98in /  1015.1hPa Calm     76% 0.00in /  0mm 0 W/m2
20:59 64.1 °F /  17.8 °C 56.8 °F /  13.8 °C 29.98in /  1015.1hPa Calm     77% 0.00in /  0mm 0 W/m2
21:04 64 °F /  17.8 °C 56.6 °F /  13.7 °C 29.98in /  1015.1hPa Calm     77% 0.00in /  0mm 0 W/m2
21:09 63.8 °F /  17.7 °C 56.3 °F /  13.5 °C 29.98in /  1015.1hPa Calm     76.6% 0.00in /  0mm 0 W/m2
21:14 63.6 °F /  17.6 °C 56.1 °F /  13.4 °C 29.98in /  1015.1hPa Calm     76.5% 0.00in /  0mm 0 W/m2
21:19 63.6 °F /  17.6 °C 56.3 °F /  13.5 °C 29.98in /  1015.1hPa Calm     77% 0.00in /  0mm 0 W/m2
21:24 63.5 °F /  17.5 °C 56.2 °F /  13.4 °C 29.98in /  1015.1hPa Calm     77% 0.00in /  0mm 0 W/m2
21:29 63.4 °F /  17.4 °C 56.1 °F /  13.4 °C 29.98in /  1015.1hPa Calm     77% 0.00in /  0mm 0 W/m2
21:34 63.3 °F /  17.4 °C 56.2 °F /  13.4 °C 29.98in /  1015.1hPa Calm   1mph /  1.6km/h 77.7% 0.00in /  0mm 0 W/m2
21:39 63.2 °F /  17.3 °C 56.2 °F /  13.4 °C 29.98in /  1015.1hPa WNW 0.1mph /  0.2km/h 3mph /  4.8km/h 78% 0.00in /  0mm 0 W/m2
21:44 63 °F /  17.2 °C 56.1 °F /  13.4 °C 29.98in /  1015.1hPa Calm   3mph /  4.8km/h 78% 0.00in /  0mm 0 W/m2
21:49 62.9 °F /  17.2 °C 56.2 °F /  13.4 °C 29.98in /  1015.1hPa WNW 0.2mph /  0.3km/h 3mph /  4.8km/h 78.8% 0.00in /  0mm 0 W/m2
21:54 62.8 °F /  17.1 °C 56.2 °F /  13.4 °C 29.98in /  1015.1hPa Calm   3mph /  4.8km/h 79% 0.00in /  0mm 0 W/m2
21:59 62.7 °F /  17.1 °C 56.2 °F /  13.4 °C 29.98in /  1015.1hPa Calm   3mph /  4.8km/h 79.2% 0.00in /  0mm 0 W/m2
22:04 62.7 °F /  17.1 °C 56.4 °F /  13.6 °C 29.98in /  1015.1hPa Calm   3mph /  4.8km/h 80% 0.00in /  0mm 0 W/m2
22:09 62.6 °F /  17 °C 56.4 °F /  13.6 °C 29.98in /  1015.1hPa Calm     80% 0.00in /  0mm 0 W/m2
22:14 62.6 °F /  17 °C 56.3 °F /  13.5 °C 29.98in /  1015.1hPa Calm     80% 0.00in /  0mm 0 W/m2
22:19 62.5 °F /  16.9 °C 56.3 °F /  13.5 °C 29.98in /  1015.1hPa Calm     80% 0.00in /  0mm 0 W/m2
22:24 62.4 °F /  16.9 °C 56.4 °F /  13.6 °C 29.98in /  1015.1hPa Calm   1mph /  1.6km/h 80.6% 0.00in /  0mm 0 W/m2
22:29 62.3 °F /  16.8 °C 56.4 °F /  13.6 °C 29.99in /  1015.5hPa WNW 0.1mph /  0.2km/h 3mph /  4.8km/h 81% 0.00in /  0mm 0 W/m2
22:34 62.2 °F /  16.8 °C 56.3 °F /  13.5 °C 29.98in /  1015.1hPa Calm   3mph /  4.8km/h 81% 0.00in /  0mm 0 W/m2
22:39 62.1 °F /  16.7 °C 56.2 °F /  13.4 °C 29.98in /  1015.1hPa Calm   1mph /  1.6km/h 81% 0.00in /  0mm 0 W/m2
22:44 62 °F /  16.7 °C 56.2 °F /  13.4 °C 29.98in /  1015.1hPa WNW 0.5mph /  0.8km/h 4mph /  6.4km/h 81% 0.00in /  0mm 0 W/m2
22:49 62 °F /  16.7 °C 56.1 °F /  13.4 °C 29.99in /  1015.5hPa WNW 0.3mph /  0.5km/h 4mph /  6.4km/h 81% 0.00in /  0mm 0 W/m2
22:54 62 °F /  16.7 °C 56.1 °F /  13.4 °C 29.99in /  1015.5hPa WNW 0.4mph /  0.6km/h 4mph /  6.4km/h 81% 0.00in /  0mm 0 W/m2
22:59 62 °F /  16.7 °C 56.1 °F /  13.4 °C 29.99in /  1015.5hPa WNW 0.1mph /  0.2km/h 4mph /  6.4km/h 81% 0.00in /  0mm 0 W/m2
23:04 62 °F /  16.7 °C 56.1 °F /  13.4 °C 29.99in /  1015.5hPa WNW 0.1mph /  0.2km/h 4mph /  6.4km/h 81% 0.00in /  0mm 0 W/m2
23:09 62.1 °F /  16.7 °C 56.2 °F /  13.4 °C 29.99in /  1015.5hPa WNW 0.2mph /  0.3km/h 3mph /  4.8km/h 81% 0.00in /  0mm 0 W/m2
23:14 62.1 °F /  16.7 °C 56.2 °F /  13.4 °C 29.99in /  1015.5hPa WNW 0.9mph /  1.4km/h 6mph /  9.7km/h 81% 0.00in /  0mm 0 W/m2
23:19 62.2 °F /  16.8 °C 56.3 °F /  13.5 °C 29.99in /  1015.5hPa WNW 1.6mph /  2.6km/h 6mph /  9.7km/h 81% 0.00in /  0mm 0 W/m2
23:24 62.2 °F /  16.8 °C 56.3 °F /  13.5 °C 29.99in /  1015.5hPa WNW 0.6mph /  1km/h 6mph /  9.7km/h 81% 0.00in /  0mm 0 W/m2
23:29 62.3 °F /  16.8 °C 56.4 °F /  13.6 °C 29.99in /  1015.5hPa WNW 0.3mph /  0.5km/h 7mph /  11.3km/h 81% 0.00in /  0mm 0 W/m2
23:34 62.4 °F /  16.9 °C 56.5 °F /  13.6 °C 29.99in /  1015.5hPa WNW 1.4mph /  2.3km/h 7mph /  11.3km/h 81% 0.00in /  0mm 0 W/m2
23:39 62.5 °F /  16.9 °C 56.6 °F /  13.7 °C 29.99in /  1015.5hPa WNW 1.4mph /  2.3km/h 7mph /  11.3km/h 81% 0.00in /  0mm 0 W/m2
23:44 62.5 °F /  16.9 °C 56.6 °F /  13.7 °C 29.99in /  1015.5hPa WNW 1.6mph /  2.6km/h 7mph /  11.3km/h 81% 0.00in /  0mm 0 W/m2
23:49 62.6 °F /  17 °C 56.7 °F /  13.7 °C 29.99in /  1015.5hPa WNW 1mph /  1.6km/h 7mph /  11.3km/h 81% 0.00in /  0mm 0 W/m2
23:54 62.6 °F /  17 °C 56.7 °F /  13.7 °C 29.99in /  1015.5hPa West 1mph /  1.6km/h 7mph /  11.3km/h 81% 0.00in /  0mm 0 W/m2
23:59 62.5 °F /  16.9 °C 56.6 °F /  13.7 °C 29.99in /  1015.5hPa WNW 1.8mph /  2.9km/h 12mph /  19.3km/h 81% 0.00in /  0mm 0 W/m2
Hartford County Weather
Compliments of Weather Underground - 4 mb